Time;durP1;ratioP1;P1;durP2;ratioP2;P2;SDS_P1;SDS_P2;PMS_P1;PMS_P2;Temp;Humidity;BMP_temperature;BMP_pressure;BME280_temperature;BME280_humidity;BME280_pressure;Samples;Min_cycle;Max_cycle;Signal;HPM_P1;HPM_P2
2022/01/27 00:01:09;;;;;;;63.17;22.73;;;;;;;;;;5036108;28;20421;-56
2022/01/27 00:03:44;;;;;;;57.67;20.00;;;;;;;;;;5036165;28;20460;-55
2022/01/27 00:06:11;;;;;;;56.40;20.93;;;;;;;;;;5036576;28;20466;-56
2022/01/27 00:08:43;;;;;;;57.43;22.00;;;;;;;;;;5036487;28;20415;-54
2022/01/27 00:11:15;;;;;;;59.87;20.50;;;;;;;;;;5036435;28;20774;-58
2022/01/27 00:13:46;;;;;;;61.47;22.17;;;;;;;;;;5036102;28;20419;-56
2022/01/27 00:16:17;;;;;;;56.43;19.73;;;;;;;;;;5036348;28;20435;-55
2022/01/27 00:18:44;;;;;;;56.73;20.00;;;;;;;;;;5036026;28;20823;-54
2022/01/27 00:21:11;;;;;;;55.70;18.80;;;;;;;;;;5035993;28;20535;-59
2022/01/27 00:23:37;;;;;;;51.20;18.10;;;;;;;;;;5035679;28;20476;-55
2022/01/27 00:26:03;;;;;;;55.40;18.83;;;;;;;;;;5036037;28;20951;-55
2022/01/27 00:28:29;;;;;;;59.17;19.63;;;;;;;;;;5035925;28;20408;-52
2022/01/27 00:30:56;;;;;;;52.03;18.17;;;;;;;;;;5035865;28;20404;-54
2022/01/27 00:33:22;;;;;;;39.33;13.90;;;;;;;;;;5035823;28;20495;-59
2022/01/27 00:35:48;;;;;;;44.97;16.30;;;;;;;;;;5035945;28;20496;-56
2022/01/27 00:38:14;;;;;;;47.07;18.90;;;;;;;;;;5035679;28;20992;-55
2022/01/27 00:40:40;;;;;;;55.03;20.47;;;;;;;;;;5035882;28;20405;-54
2022/01/27 00:43:06;;;;;;;59.47;20.50;;;;;;;;;;5035719;28;20872;-56
2022/01/27 00:45:33;;;;;;;57.17;20.07;;;;;;;;;;5035577;28;20472;-56
2022/01/27 00:48:02;;;;;;;51.77;19.57;;;;;;;;;;5035529;28;20419;-56
2022/01/27 00:50:29;;;;;;;52.43;19.87;;;;;;;;;;5035520;28;20423;-55
2022/01/27 00:52:57;;;;;;;60.03;19.93;;;;;;;;;;5035791;28;20419;-55
2022/01/27 00:55:25;;;;;;;50.77;19.93;;;;;;;;;;5035512;28;20436;-56
2022/01/27 01:00:23;;;;;;;44.23;18.10;;;;;;;;;;5035936;28;20503;-56
2022/01/27 01:02:59;;;;;;;59.40;21.30;;;;;;;;;;5035447;28;20437;-54
2022/01/27 01:16:02;;;;;;;56.83;20.97;;;;;;;;;;5035370;28;20444;-53
2022/01/27 01:31:52;;;;;;;45.33;19.13;;;;;;;;;;5034715;28;20423;-53
2022/01/27 01:34:22;;;;;;;40.80;17.17;;;;;;;;;;5035265;28;20519;-58
2022/01/27 01:36:58;;;;;;;41.60;15.73;;;;;;;;;;5034780;28;20409;-56
2022/01/27 01:39:28;;;;;;;47.70;18.60;;;;;;;;;;5034506;28;20927;-55
2022/01/27 01:41:54;;;;;;;51.43;19.03;;;;;;;;;;5034856;28;20494;-55
2022/01/27 01:44:20;;;;;;;44.33;18.43;;;;;;;;;;5033174;28;20472;-54
2022/01/27 01:46:46;;;;;;;44.20;19.33;;;;;;;;;;5034597;28;20416;-56
2022/01/27 01:49:12;;;;;;;50.90;18.33;;;;;;;;;;5034420;28;20412;-56
2022/01/27 01:51:39;;;;;;;49.23;20.13;;;;;;;;;;5034410;28;20755;-54
2022/01/27 01:54:06;;;;;;;46.93;17.77;;;;;;;;;;5034429;28;20413;-56
2022/01/27 01:56:33;;;;;;;42.00;17.90;;;;;;;;;;5034553;28;20825;-55
2022/01/27 01:58:59;;;;;;;48.17;20.40;;;;;;;;;;5034332;28;20960;-56
2022/01/27 02:01:25;;;;;;;44.43;19.20;;;;;;;;;;5034367;28;20457;-55
2022/01/27 02:03:51;;;;;;;42.37;18.93;;;;;;;;;;5034114;28;20488;-57
2022/01/27 02:06:29;;;;;;;44.53;19.20;;;;;;;;;;5034449;28;20464;-58
2022/01/27 02:19:41;;;;;;;37.23;16.47;;;;;;;;;;5034103;28;20439;-57
2022/01/27 02:22:07;;;;;;;37.53;17.47;;;;;;;;;;5033849;28;20444;-56
2022/01/27 02:24:34;;;;;;;38.37;16.63;;;;;;;;;;5033710;28;21038;-53
2022/01/27 02:27:01;;;;;;;33.43;15.87;;;;;;;;;;5033779;28;20408;-55
2022/01/27 02:29:27;;;;;;;33.87;16.43;;;;;;;;;;5033755;28;20970;-56
2022/01/27 02:31:54;;;;;;;31.10;15.10;;;;;;;;;;5033999;28;20405;-55
2022/01/27 02:34:20;;;;;;;35.33;15.13;;;;;;;;;;5033785;28;20419;-55
2022/01/27 02:36:46;;;;;;;33.93;16.43;;;;;;;;;;5033759;28;20409;-55
2022/01/27 02:39:12;;;;;;;29.67;14.87;;;;;;;;;;5033494;28;20886;-54
2022/01/27 02:41:51;;;;;;;30.93;14.70;;;;;;;;;;5033426;28;20411;-54
2022/01/27 02:44:24;;;;;;;36.50;16.30;;;;;;;;;;5033695;28;20471;-53
2022/01/27 02:46:51;;;;;;;31.03;14.60;;;;;;;;;;5033372;28;20420;-55
2022/01/27 02:49:17;;;;;;;31.10;14.00;;;;;;;;;;5033351;28;20458;-54
2022/01/27 02:51:43;;;;;;;34.20;15.30;;;;;;;;;;5033276;28;20424;-54
2022/01/27 02:54:09;;;;;;;37.27;16.07;;;;;;;;;;5033258;28;20412;-59
2022/01/27 02:56:38;;;;;;;32.60;15.50;;;;;;;;;;5033166;28;20900;-55
2022/01/27 02:59:04;;;;;;;29.63;14.07;;;;;;;;;;5033407;28;20416;-54
2022/01/27 03:01:30;;;;;;;24.77;12.17;;;;;;;;;;5033138;28;20413;-55
2022/01/27 03:03:56;;;;;;;29.10;14.90;;;;;;;;;;5032623;28;20460;-54
2022/01/27 03:06:22;;;;;;;33.60;15.67;;;;;;;;;;5032294;28;20417;-56
2022/01/27 03:08:48;;;;;;;29.33;12.67;;;;;;;;;;5032575;28;20508;-55
2022/01/27 03:11:16;;;;;;;26.17;14.83;;;;;;;;;;5032270;28;20777;-54
2022/01/27 03:13:43;;;;;;;22.00;11.53;;;;;;;;;;5032230;28;20412;-56
2022/01/27 03:16:09;;;;;;;28.80;14.60;;;;;;;;;;5032395;28;20423;-55
2022/01/27 03:18:36;;;;;;;27.57;12.83;;;;;;;;;;5032174;28;20443;-53
2022/01/27 03:21:02;;;;;;;30.97;14.50;;;;;;;;;;5032168;28;20413;-56
2022/01/27 03:23:28;;;;;;;28.23;14.00;;;;;;;;;;5031932;28;20487;-55
2022/01/27 03:25:54;;;;;;;24.40;14.07;;;;;;;;;;5032112;28;20518;-55
2022/01/27 03:28:24;;;;;;;29.43;14.30;;;;;;;;;;5032055;28;20416;-55
2022/01/27 03:30:50;;;;;;;30.63;15.97;;;;;;;;;;5031845;28;20504;-55
2022/01/27 03:33:16;;;;;;;32.70;14.20;;;;;;;;;;5032187;28;20474;-55
2022/01/27 03:35:42;;;;;;;26.00;14.33;;;;;;;;;;5030674;28;20424;-53
2022/01/27 03:38:08;;;;;;;31.90;14.90;;;;;;;;;;5031957;28;20762;-55
2022/01/27 03:40:34;;;;;;;28.30;14.00;;;;;;;;;;5031924;28;20416;-57
2022/01/27 03:43:06;;;;;;;32.73;14.90;;;;;;;;;;5032431;28;20466;-55
2022/01/27 03:45:32;;;;;;;32.63;14.53;;;;;;;;;;5031793;28;20499;-56
2022/01/27 03:47:58;;;;;;;27.13;13.30;;;;;;;;;;5030467;28;20459;-57
2022/01/27 03:50:24;;;;;;;29.80;14.20;;;;;;;;;;5030778;28;20730;-56
2022/01/27 03:52:50;;;;;;;28.83;14.60;;;;;;;;;;5031836;28;20423;-56
2022/01/27 03:55:16;;;;;;;31.83;14.17;;;;;;;;;;5032039;28;20467;-55
2022/01/27 03:57:42;;;;;;;23.70;13.80;;;;;;;;;;5031854;28;20411;-56
2022/01/27 04:00:09;;;;;;;28.07;14.57;;;;;;;;;;5031748;28;20417;-57
2022/01/27 04:02:38;;;;;;;29.40;12.97;;;;;;;;;;5031769;28;20885;-55
2022/01/27 04:05:04;;;;;;;26.50;12.30;;;;;;;;;;5031524;28;21044;-53
2022/01/27 04:07:30;;;;;;;32.90;14.67;;;;;;;;;;5031969;28;20410;-53
2022/01/27 04:09:56;;;;;;;29.20;14.70;;;;;;;;;;5031625;28;20416;-55
2022/01/27 04:12:22;;;;;;;31.03;15.20;;;;;;;;;;5030019;28;20905;-58
2022/01/27 04:14:48;;;;;;;28.10;13.87;;;;;;;;;;5031571;28;20412;-56
2022/01/27 04:17:14;;;;;;;26.63;14.40;;;;;;;;;;5036915;28;20408;-55
2022/01/27 04:19:40;;;;;;;32.33;13.23;;;;;;;;;;5051155;28;20523;-55
2022/01/27 04:22:06;;;;;;;26.47;13.43;;;;;;;;;;5051340;28;20399;-56
2022/01/27 04:24:32;;;;;;;24.67;12.93;;;;;;;;;;5051628;28;20478;-56
2022/01/27 04:27:06;;;;;;;24.43;13.30;;;;;;;;;;5051378;28;20486;-55
2022/01/27 04:29:35;;;;;;;18.13;10.30;;;;;;;;;;5051655;28;20465;-54
2022/01/27 04:32:03;;;;;;;21.47;12.17;;;;;;;;;;5051314;28;20983;-57
2022/01/27 04:34:31;;;;;;;22.37;10.37;;;;;;;;;;5051688;28;20799;-57
2022/01/27 04:36:57;;;;;;;20.70;11.57;;;;;;;;;;5051631;28;20439;-57
2022/01/27 04:39:51;;;;;;;25.20;12.30;;;;;;;;;;5050009;28;20784;-56
2022/01/27 04:42:26;;;;;;;22.93;12.13;;;;;;;;;;5051047;28;20930;-55
2022/01/27 04:44:58;;;;;;;23.13;12.57;;;;;;;;;;5054814;28;20478;-54
2022/01/27 04:47:32;;;;;;;21.87;11.27;;;;;;;;;;5054919;28;20411;-54
2022/01/27 04:49:58;;;;;;;19.83;10.87;;;;;;;;;;5054907;28;20494;-57
2022/01/27 04:52:27;;;;;;;20.40;11.90;;;;;;;;;;5053505;28;20419;-57
2022/01/27 04:55:01;;;;;;;19.50;10.63;;;;;;;;;;5054912;28;20415;-59
2022/01/27 04:57:29;;;;;;;27.47;11.00;;;;;;;;;;5054664;28;20933;-56
2022/01/27 04:59:55;;;;;;;19.50;10.83;;;;;;;;;;5054348;28;20416;-55
2022/01/27 05:02:37;;;;;;;18.97;10.67;;;;;;;;;;5054454;28;20900;-56
2022/01/27 05:05:03;;;;;;;16.63;9.77;;;;;;;;;;5054464;28;20469;-56
2022/01/27 05:07:29;;;;;;;24.73;13.00;;;;;;;;;;5054384;28;20419;-61
2022/01/27 05:10:00;;;;;;;26.03;12.77;;;;;;;;;;5054637;28;20434;-58
2022/01/27 05:12:36;;;;;;;27.13;11.93;;;;;;;;;;5054247;28;20477;-59
2022/01/27 05:15:02;;;;;;;20.93;10.67;;;;;;;;;;5054172;28;20896;-56
2022/01/27 05:17:28;;;;;;;22.23;12.00;;;;;;;;;;5053005;28;20408;-56
2022/01/27 05:19:54;;;;;;;23.90;12.53;;;;;;;;;;5053910;28;20736;-53
2022/01/27 05:22:20;;;;;;;26.90;14.53;;;;;;;;;;5053868;28;20466;-55
2022/01/27 05:24:46;;;;;;;21.40;11.60;;;;;;;;;;5054050;28;20470;-54
2022/01/27 05:27:12;;;;;;;26.67;13.60;;;;;;;;;;5053932;28;20807;-55
2022/01/27 05:29:38;;;;;;;25.90;13.10;;;;;;;;;;5053936;28;20460;-59
2022/01/27 05:32:04;;;;;;;23.87;11.77;;;;;;;;;;5053729;28;20410;-63
2022/01/27 05:34:30;;;;;;;35.80;15.83;;;;;;;;;;5053837;28;20412;-58
2022/01/27 05:36:56;;;;;;;27.10;14.53;;;;;;;;;;5053791;28;20427;-56
2022/01/27 05:39:22;;;;;;;23.97;11.70;;;;;;;;;;5053745;28;20869;-54
2022/01/27 05:41:48;;;;;;;22.10;11.33;;;;;;;;;;5053666;28;20411;-55
2022/01/27 05:44:14;;;;;;;28.47;15.47;;;;;;;;;;5052287;28;20524;-54
2022/01/27 05:46:40;;;;;;;26.97;14.80;;;;;;;;;;5053834;28;20408;-56
2022/01/27 05:49:05;;;;;;;20.70;11.77;;;;;;;;;;5053514;28;20912;-55
2022/01/27 05:51:32;;;;;;;26.47;12.40;;;;;;;;;;5053654;28;20756;-55
2022/01/27 05:53:58;;;;;;;23.00;10.97;;;;;;;;;;5052983;28;20499;-55
2022/01/27 05:56:24;;;;;;;21.47;11.47;;;;;;;;;;5053528;28;20498;-58
2022/01/27 05:58:49;;;;;;;25.93;13.63;;;;;;;;;;5053686;28;20411;-55
2022/01/27 06:01:15;;;;;;;25.60;13.80;;;;;;;;;;5053520;28;20448;-52
2022/01/27 06:03:42;;;;;;;20.60;11.40;;;;;;;;;;5053532;28;20415;-52
2022/01/27 06:06:08;;;;;;;27.50;15.20;;;;;;;;;;5051922;28;20463;-56
2022/01/27 06:08:34;;;;;;;28.13;14.50;;;;;;;;;;5053342;28;20469;-53
2022/01/27 06:11:01;;;;;;;22.83;12.33;;;;;;;;;;5053423;28;20420;-55
2022/01/27 06:13:27;;;;;;;20.10;11.77;;;;;;;;;;5053124;28;20427;-61
2022/01/27 06:15:53;;;;;;;22.80;10.70;;;;;;;;;;5053042;28;20741;-54
2022/01/27 06:18:19;;;;;;;19.33;11.07;;;;;;;;;;5053159;28;20416;-54
2022/01/27 06:20:46;;;;;;;17.60;9.70;;;;;;;;;;5052100;28;20422;-54
2022/01/27 06:23:12;;;;;;;28.20;13.00;;;;;;;;;;5051436;28;20928;-52
2022/01/27 06:25:39;;;;;;;25.33;13.07;;;;;;;;;;5052666;28;20467;-55
2022/01/27 06:28:05;;;;;;;20.50;11.50;;;;;;;;;;5052784;28;20487;-55
2022/01/27 06:30:34;;;;;;;21.77;12.10;;;;;;;;;;5052676;28;20419;-54
2022/01/27 06:33:01;;;;;;;17.30;10.60;;;;;;;;;;5051365;28;20473;-61
2022/01/27 06:35:27;;;;;;;16.60;9.60;;;;;;;;;;5052592;28;20849;-57
2022/01/27 06:37:53;;;;;;;33.17;12.40;;;;;;;;;;5052741;28;20423;-57
2022/01/27 06:40:19;;;;;;;23.13;11.70;;;;;;;;;;5051181;28;20926;-58
2022/01/27 06:42:45;;;;;;;25.27;13.93;;;;;;;;;;5052648;28;20411;-57
2022/01/27 06:45:12;;;;;;;25.47;14.20;;;;;;;;;;5052339;28;20974;-56
2022/01/27 06:47:38;;;;;;;21.67;11.10;;;;;;;;;;5052242;28;20904;-55
2022/01/27 06:50:05;;;;;;;20.37;11.17;;;;;;;;;;5052463;28;20514;-53
2022/01/27 06:52:31;;;;;;;25.50;14.13;;;;;;;;;;5052490;28;20408;-56
2022/01/27 06:54:57;;;;;;;20.90;9.80;;;;;;;;;;5052315;28;20495;-53
2022/01/27 06:57:24;;;;;;;24.27;13.07;;;;;;;;;;5052355;28;20490;-53
2022/01/27 06:59:50;;;;;;;16.73;9.37;;;;;;;;;;5050950;28;20466;-53
2022/01/27 07:02:16;;;;;;;22.00;12.50;;;;;;;;;;5052432;28;20411;-56
2022/01/27 07:04:42;;;;;;;19.23;10.87;;;;;;;;;;5050909;28;20566;-52
2022/01/27 07:07:08;;;;;;;17.23;9.03;;;;;;;;;;5051437;28;20491;-53
2022/01/27 07:09:34;;;;;;;19.80;11.10;;;;;;;;;;5050708;28;20431;-59
2022/01/27 07:12:00;;;;;;;19.93;11.93;;;;;;;;;;5051413;28;20407;-57
2022/01/27 07:14:26;;;;;;;14.50;9.20;;;;;;;;;;5065468;28;20860;-55
2022/01/27 07:16:52;;;;;;;28.83;12.20;;;;;;;;;;5057760;28;20416;-56
2022/01/27 07:19:18;;;;;;;22.57;12.70;;;;;;;;;;5069312;28;20411;-56
2022/01/27 07:21:44;;;;;;;18.20;11.27;;;;;;;;;;5050753;28;20946;-53
2022/01/27 07:24:10;;;;;;;19.83;11.40;;;;;;;;;;5050781;28;20494;-55
2022/01/27 07:26:37;;;;;;;18.93;11.83;;;;;;;;;;5051173;28;20451;-54
2022/01/27 07:29:03;;;;;;;18.33;11.50;;;;;;;;;;5051145;28;20761;-54
2022/01/27 07:31:29;;;;;;;16.60;9.63;;;;;;;;;;5049443;28;20778;-54
2022/01/27 07:33:55;;;;;;;22.07;12.40;;;;;;;;;;5050855;28;20404;-55
2022/01/27 07:36:21;;;;;;;17.77;11.20;;;;;;;;;;5051329;28;20765;-58
2022/01/27 07:38:48;;;;;;;23.07;11.50;;;;;;;;;;5050858;28;20404;-58
2022/01/27 07:41:14;;;;;;;21.07;11.20;;;;;;;;;;5051360;28;20412;-58
2022/01/27 07:43:40;;;;;;;22.10;12.20;;;;;;;;;;5050652;28;20915;-63
2022/01/27 07:46:07;;;;;;;22.80;12.40;;;;;;;;;;5050671;28;20461;-58
2022/01/27 07:48:33;;;;;;;17.13;9.60;;;;;;;;;;5051121;28;20412;-65
2022/01/27 07:51:02;;;;;;;18.60;9.93;;;;;;;;;;5051591;28;20927;-69
2022/01/27 07:53:28;;;;;;;20.30;11.97;;;;;;;;;;5051641;28;20477;-65
2022/01/27 07:55:54;;;;;;;18.37;10.93;;;;;;;;;;5051569;28;20773;-66
2022/01/27 07:58:20;;;;;;;23.03;11.97;;;;;;;;;;5051442;28;20565;-60
2022/01/27 08:00:46;;;;;;;22.13;11.83;;;;;;;;;;5051937;28;20553;-68
2022/01/27 08:03:12;;;;;;;21.67;12.03;;;;;;;;;;5050235;28;20454;-56
2022/01/27 08:05:38;;;;;;;18.30;10.13;;;;;;;;;;5051573;28;20471;-55
2022/01/27 08:08:04;;;;;;;18.90;10.17;;;;;;;;;;5051411;28;20854;-63
2022/01/27 08:10:37;;;;;;;23.10;12.40;;;;;;;;;;5051546;28;20412;-67
2022/01/27 08:13:03;;;;;;;22.33;12.67;;;;;;;;;;5051985;28;20418;-58
2022/01/27 08:15:29;;;;;;;20.43;11.77;;;;;;;;;;5051498;28;20446;-54
2022/01/27 08:17:55;;;;;;;28.77;12.00;;;;;;;;;;5053718;28;20403;-60
2022/01/27 08:20:21;;;;;;;13.97;8.33;;;;;;;;;;5055479;28;20767;-55
2022/01/27 08:22:50;;;;;;;23.80;10.57;;;;;;;;;;5055468;28;20633;-55
2022/01/27 08:25:16;;;;;;;23.90;13.43;;;;;;;;;;5055749;28;20510;-64
2022/01/27 08:27:45;;;;;;;24.90;13.73;;;;;;;;;;5055403;28;20780;-55
2022/01/27 08:30:14;;;;;;;24.03;12.10;;;;;;;;;;5055297;28;20790;-57
2022/01/27 08:32:49;;;;;;;24.60;13.10;;;;;;;;;;5053924;28;20447;-57
2022/01/27 08:35:16;;;;;;;25.60;13.87;;;;;;;;;;5055179;28;20463;-57
2022/01/27 08:37:43;;;;;;;21.87;12.10;;;;;;;;;;5053948;28;20416;-64
2022/01/27 08:40:09;;;;;;;28.00;13.53;;;;;;;;;;5066515;28;20942;-57
2022/01/27 08:42:40;;;;;;;37.23;15.00;;;;;;;;;;5066644;28;20502;-55
2022/01/27 08:45:06;;;;;;;21.87;11.13;;;;;;;;;;5054052;28;20983;-61
2022/01/27 08:47:32;;;;;;;27.73;14.00;;;;;;;;;;5064054;28;20415;-63
2022/01/27 08:49:58;;;;;;;26.87;13.60;;;;;;;;;;5054245;28;20525;-57
2022/01/27 08:52:25;;;;;;;22.17;11.87;;;;;;;;;;5052535;28;20408;-59
2022/01/27 08:54:50;;;;;;;29.63;15.17;;;;;;;;;;5056735;28;20508;-59
2022/01/27 08:57:16;;;;;;;27.90;13.43;;;;;;;;;;5074018;28;20450;-59
2022/01/27 08:59:42;;;;;;;17.23;10.93;;;;;;;;;;5073818;28;20467;-56
2022/01/27 09:02:08;;;;;;;24.33;12.53;;;;;;;;;;5074167;28;20433;-56
2022/01/27 09:04:34;;;;;;;18.60;11.53;;;;;;;;;;5073701;28;20469;-59
2022/01/27 09:07:00;;;;;;;25.80;14.00;;;;;;;;;;5074009;28;20407;-56
2022/01/27 09:09:26;;;;;;;26.37;14.00;;;;;;;;;;5074168;28;20896;-58
2022/01/27 09:11:55;;;;;;;23.70;14.20;;;;;;;;;;5071631;28;20434;-58
2022/01/27 09:14:22;;;;;;;24.60;13.50;;;;;;;;;;5054331;28;20465;-58
2022/01/27 09:16:48;;;;;;;24.70;13.07;;;;;;;;;;5054640;28;20404;-61
2022/01/27 09:19:15;;;;;;;24.70;12.43;;;;;;;;;;5054114;28;20958;-57
2022/01/27 09:21:44;;;;;;;21.83;12.17;;;;;;;;;;5052743;28;20424;-60
2022/01/27 09:24:16;;;;;;;21.70;12.50;;;;;;;;;;5053636;28;20483;-58
2022/01/27 09:26:53;;;;;;;25.30;12.87;;;;;;;;;;5052778;28;20445;-56
2022/01/27 09:29:20;;;;;;;26.30;13.73;;;;;;;;;;5053047;28;20403;-56
2022/01/27 09:31:47;;;;;;;16.77;9.50;;;;;;;;;;5053891;28;20434;-56
2022/01/27 09:34:14;;;;;;;27.87;14.40;;;;;;;;;;5052738;28;20414;-56
2022/01/27 09:36:40;;;;;;;26.77;13.53;;;;;;;;;;5053959;28;20399;-58
2022/01/27 09:39:06;;;;;;;25.87;13.60;;;;;;;;;;5053759;28;20904;-57
2022/01/27 09:41:36;;;;;;;21.00;11.17;;;;;;;;;;5051849;28;20416;-57
2022/01/27 09:44:02;;;;;;;23.50;11.27;;;;;;;;;;5053636;28;20486;-60
2022/01/27 09:46:28;;;;;;;20.83;11.63;;;;;;;;;;5053634;28;20442;-57
2022/01/27 09:48:55;;;;;;;23.60;13.50;;;;;;;;;;5053565;28;20412;-62
2022/01/27 09:53:50;;;;;;;24.37;12.80;;;;;;;;;;5053040;28;20418;-58
2022/01/27 09:56:17;;;;;;;26.47;13.27;;;;;;;;;;5053482;28;20931;-59
2022/01/27 09:58:43;;;;;;;20.00;11.63;;;;;;;;;;5052069;28;20574;-57
2022/01/27 10:01:09;;;;;;;28.90;15.07;;;;;;;;;;5053212;28;20400;-57
2022/01/27 10:03:51;;;;;;;24.73;13.37;;;;;;;;;;5053321;28;20420;-59
2022/01/27 10:06:18;;;;;;;22.27;11.23;;;;;;;;;;5053775;28;20754;-56
2022/01/27 10:08:44;;;;;;;23.40;12.40;;;;;;;;;;5053173;28;20478;-54
2022/01/27 10:11:14;;;;;;;28.20;14.27;;;;;;;;;;5053305;28;20418;-61
2022/01/27 10:13:43;;;;;;;26.33;13.50;;;;;;;;;;5053424;28;20407;-60
2022/01/27 10:16:27;;;;;;;17.07;9.70;;;;;;;;;;5052979;28;20412;-57
2022/01/27 10:19:03;;;;;;;30.13;13.70;;;;;;;;;;5051546;28;20412;-61
2022/01/27 10:21:33;;;;;;;27.60;12.70;;;;;;;;;;5052834;28;20423;-57
2022/01/27 10:24:32;;;;;;;30.40;14.77;;;;;;;;;;5051298;28;20476;-65
2022/01/27 10:27:17;;;;;;;21.20;11.30;;;;;;;;;;5030094;28;20414;-60
2022/01/27 10:30:05;;;;;;;24.80;14.20;;;;;;;;;;5052756;28;20430;-66
2022/01/27 10:32:37;;;;;;;29.57;14.83;;;;;;;;;;5053114;28;20408;-58
2022/01/27 10:35:04;;;;;;;27.87;13.80;;;;;;;;;;5052978;28;20478;-61
2022/01/27 10:37:50;;;;;;;23.57;12.70;;;;;;;;;;5052584;28;20411;-55
2022/01/27 10:40:28;;;;;;;24.33;13.03;;;;;;;;;;5051989;28;20409;-62
2022/01/27 10:43:07;;;;;;;26.30;14.33;;;;;;;;;;5052666;28;20473;-58
2022/01/27 10:45:33;;;;;;;28.00;13.90;;;;;;;;;;5052508;28;20477;-55
2022/01/27 10:48:12;;;;;;;24.50;13.00;;;;;;;;;;5071200;28;20411;-65
2022/01/27 10:50:47;;;;;;;19.53;10.80;;;;;;;;;;5072665;28;20509;-60
2022/01/27 10:53:14;;;;;;;19.10;9.47;;;;;;;;;;5069575;28;20394;-58
2022/01/27 10:55:53;;;;;;;;;;;;;;;;;;;;;
2022/01/27 10:58:26;;;;;;;22.70;13.17;;;;;;;;;;5051984;28;20788;-57
2022/01/27 11:01:00;;;;;;;32.03;14.37;;;;;;;;;;5050931;28;20526;-59
2022/01/27 11:03:27;;;;;;;31.67;13.77;;;;;;;;;;5052052;28;20900;-59
2022/01/27 11:05:54;;;;;;;28.10;12.90;;;;;;;;;;5052220;28;20467;-58
2022/01/27 11:08:21;;;;;;;25.33;13.47;;;;;;;;;;5052143;28;20411;-58
2022/01/27 11:10:49;;;;;;;27.27;13.67;;;;;;;;;;5050907;28;20432;-57
2022/01/27 11:13:17;;;;;;;27.80;13.70;;;;;;;;;;5052205;28;20808;-58
2022/01/27 11:15:43;;;;;;;23.57;13.00;;;;;;;;;;5052049;28;20415;-58
2022/01/27 11:18:20;;;;;;;26.73;13.87;;;;;;;;;;5052055;28;20399;-58
2022/01/27 11:21:02;;;;;;;23.77;11.83;;;;;;;;;;5050845;28;20415;-58
2022/01/27 11:26:02;;;;;;;22.30;10.90;;;;;;;;;;5051625;28;20968;-57
2022/01/27 11:28:29;;;;;;;20.27;10.07;;;;;;;;;;5051728;28;20407;-58
2022/01/27 11:31:06;;;;;;;19.00;10.50;;;;;;;;;;5051880;28;20757;-57
2022/01/27 11:33:33;;;;;;;27.20;13.00;;;;;;;;;;5051426;28;20412;-57
2022/01/27 11:36:10;;;;;;;22.50;10.60;;;;;;;;;;5050632;28;20777;-57
2022/01/27 11:38:38;;;;;;;28.03;14.10;;;;;;;;;;5050385;28;20419;-60
2022/01/27 11:41:04;;;;;;;21.90;11.53;;;;;;;;;;5051541;28;20416;-58
2022/01/27 11:43:33;;;;;;;23.90;13.00;;;;;;;;;;5051443;28;20939;-57
2022/01/27 11:46:12;;;;;;;22.87;11.93;;;;;;;;;;5054049;28;20523;-57
2022/01/27 11:48:38;;;;;;;19.60;9.20;;;;;;;;;;5071545;28;20407;-58
2022/01/27 11:51:07;;;;;;;25.77;12.70;;;;;;;;;;5071203;28;20456;-61
2022/01/27 11:53:33;;;;;;;28.80;13.10;;;;;;;;;;5069423;28;20408;-57
2022/01/27 11:56:01;;;;;;;23.50;10.87;;;;;;;;;;5055572;28;20422;-61
2022/01/27 11:58:28;;;;;;;26.47;13.77;;;;;;;;;;5055483;28;20408;-59
2022/01/27 12:01:02;;;;;;;24.70;11.67;;;;;;;;;;5055847;28;20912;-58
2022/01/27 12:03:28;;;;;;;24.33;12.97;;;;;;;;;;5053877;28;20776;-57
2022/01/27 12:06:12;;;;;;;28.67;14.43;;;;;;;;;;5055283;28;20478;-58
2022/01/27 12:08:38;;;;;;;27.87;13.90;;;;;;;;;;5055428;28;20396;-57
2022/01/27 12:11:08;;;;;;;17.93;10.50;;;;;;;;;;5055340;28;20489;-58
2022/01/27 12:13:55;;;;;;;19.30;12.43;;;;;;;;;;5053942;28;20407;-59
2022/01/27 12:19:02;;;;;;;26.53;12.77;;;;;;;;;;5055716;28;20411;-64
2022/01/27 12:21:32;;;;;;;21.63;12.43;;;;;;;;;;5055256;28;20408;-57
2022/01/27 12:24:24;;;;;;;25.63;12.57;;;;;;;;;;5054887;28;20590;-59
2022/01/27 12:26:51;;;;;;;25.03;11.77;;;;;;;;;;5055127;28;20429;-58
2022/01/27 12:29:25;;;;;;;17.53;11.60;;;;;;;;;;5055143;28;20407;-60
2022/01/27 12:31:52;;;;;;;22.10;12.90;;;;;;;;;;5054923;28;20498;-67
2022/01/27 12:34:19;;;;;;;26.27;12.67;;;;;;;;;;5055271;28;20403;-61
2022/01/27 12:36:54;;;;;;;22.70;11.90;;;;;;;;;;5055235;28;20408;-62
2022/01/27 12:39:24;;;;;;;30.77;14.77;;;;;;;;;;5054791;28;20411;-60
2022/01/27 12:41:51;;;;;;;22.73;12.20;;;;;;;;;;5054907;28;20407;-66
2022/01/27 12:44:17;;;;;;;36.23;13.33;;;;;;;;;;5053616;28;20497;-62
2022/01/27 12:47:02;;;;;;;27.53;14.07;;;;;;;;;;5063569;28;20411;-61
2022/01/27 12:49:39;;;;;;;27.13;14.70;;;;;;;;;;5074520;28;20406;-63
2022/01/27 12:52:07;;;;;;;28.70;13.70;;;;;;;;;;5074466;28;20406;-65
2022/01/27 12:54:33;;;;;;;26.20;13.70;;;;;;;;;;5060162;28;20942;-61
2022/01/27 12:56:59;;;;;;;22.40;13.00;;;;;;;;;;5054713;28;20485;-57
2022/01/27 12:59:30;;;;;;;22.17;11.80;;;;;;;;;;5054204;28;20411;-61
2022/01/27 13:02:07;;;;;;;25.20;12.77;;;;;;;;;;5054585;28;20407;-63
2022/01/27 13:04:34;;;;;;;17.70;11.30;;;;;;;;;;5053554;28;20545;-62
2022/01/27 13:07:00;;;;;;;23.10;10.90;;;;;;;;;;5054423;28;20477;-62
2022/01/27 13:09:28;;;;;;;33.70;11.93;;;;;;;;;;5054375;28;20411;-63
2022/01/27 13:11:55;;;;;;;19.70;11.47;;;;;;;;;;5054461;28;20419;-62
2022/01/27 13:14:21;;;;;;;18.60;11.37;;;;;;;;;;5054567;28;20431;-62
2022/01/27 13:16:54;;;;;;;19.43;10.17;;;;;;;;;;5054728;28;20837;-63
2022/01/27 13:19:24;;;;;;;24.80;12.10;;;;;;;;;;5054005;28;20971;-59
2022/01/27 13:22:03;;;;;;;27.30;13.30;;;;;;;;;;5053931;28;20404;-63
2022/01/27 13:24:33;;;;;;;23.00;10.47;;;;;;;;;;5054131;28;20466;-58
2022/01/27 13:27:09;;;;;;;22.30;12.90;;;;;;;;;;5054243;28;20411;-62
2022/01/27 13:29:39;;;;;;;18.77;10.40;;;;;;;;;;5053784;28;20768;-60
2022/01/27 13:32:06;;;;;;;20.07;11.00;;;;;;;;;;5052691;28;20438;-60
2022/01/27 13:34:33;;;;;;;24.20;12.33;;;;;;;;;;5053995;28;20416;-61
2022/01/27 13:37:01;;;;;;;29.20;11.13;;;;;;;;;;5053646;28;20925;-59
2022/01/27 13:41:53;;;;;;;19.67;10.97;;;;;;;;;;5053964;28;20451;-57
2022/01/27 13:44:19;;;;;;;20.53;10.40;;;;;;;;;;5052335;28;20467;-61
2022/01/27 13:46:51;;;;;;;17.07;10.20;;;;;;;;;;5062535;28;20414;-57
2022/01/27 13:49:28;;;;;;;16.07;9.93;;;;;;;;;;5073950;28;20444;-62
2022/01/27 13:51:59;;;;;;;15.53;10.40;;;;;;;;;;5073839;28;20417;-61
2022/01/27 13:54:31;;;;;;;18.70;11.77;;;;;;;;;;5061079;28;20408;-59
2022/01/27 13:57:14;;;;;;;19.20;11.80;;;;;;;;;;5052082;28;20423;-59
2022/01/27 13:59:55;;;;;;;16.90;10.57;;;;;;;;;;5053161;28;20404;-61
2022/01/27 14:02:22;;;;;;;18.13;12.00;;;;;;;;;;5053319;28;20428;-60
2022/01/27 14:04:50;;;;;;;16.67;9.80;;;;;;;;;;5053278;28;20470;-61
2022/01/27 14:07:26;;;;;;;15.77;10.10;;;;;;;;;;5053304;28;20422;-61
2022/01/27 14:09:53;;;;;;;16.03;10.37;;;;;;;;;;5052952;28;20761;-59
2022/01/27 14:12:29;;;;;;;15.47;9.53;;;;;;;;;;5053034;28;20419;-59
2022/01/27 14:14:55;;;;;;;20.97;10.87;;;;;;;;;;5052758;28;20395;-59
2022/01/27 14:17:26;;;;;;;10.50;8.23;;;;;;;;;;5052932;28;20520;-60
2022/01/27 14:19:53;;;;;;;16.53;9.77;;;;;;;;;;5052969;28;20438;-58
2022/01/27 14:22:20;;;;;;;19.27;10.40;;;;;;;;;;5052853;28;20482;-60
2022/01/27 14:25:03;;;;;;;15.27;9.70;;;;;;;;;;5052954;28;20467;-59
2022/01/27 14:27:33;;;;;;;11.87;7.63;;;;;;;;;;5052676;28;20404;-62
2022/01/27 14:29:59;;;;;;;15.77;9.43;;;;;;;;;;5052889;28;20939;-62
2022/01/27 14:32:25;;;;;;;27.93;10.93;;;;;;;;;;5052961;28;20400;-60
2022/01/27 14:34:52;;;;;;;15.30;9.60;;;;;;;;;;5052534;28;20855;-60
2022/01/27 14:37:18;;;;;;;15.47;10.73;;;;;;;;;;5052618;28;20407;-64
2022/01/27 14:39:46;;;;;;;16.47;11.07;;;;;;;;;;5052608;28;20418;-66
2022/01/27 14:42:12;;;;;;;15.57;8.63;;;;;;;;;;5052465;28;20412;-62
2022/01/27 14:44:38;;;;;;;16.33;9.33;;;;;;;;;;5052521;28;20455;-59
2022/01/27 14:47:06;;;;;;;16.00;10.37;;;;;;;;;;5063684;28;20418;-62
2022/01/27 14:49:36;;;;;;;14.03;9.50;;;;;;;;;;5072020;28;20409;-59
2022/01/27 14:52:03;;;;;;;13.33;7.97;;;;;;;;;;5072524;28;20394;-61
2022/01/27 14:54:29;;;;;;;16.40;9.80;;;;;;;;;;5059622;28;20404;-63
2022/01/27 14:56:57;;;;;;;13.70;9.50;;;;;;;;;;5052167;28;20415;-61
2022/01/27 14:59:24;;;;;;;12.30;9.37;;;;;;;;;;5051755;28;20404;-59
2022/01/27 15:01:50;;;;;;;12.17;8.67;;;;;;;;;;5060407;28;20533;-57
2022/01/27 15:04:16;;;;;;;9.10;7.03;;;;;;;;;;5056760;28;20549;-59
2022/01/27 15:06:42;;;;;;;18.90;9.70;;;;;;;;;;5068991;28;20795;-61
2022/01/27 15:09:08;;;;;;;14.03;8.40;;;;;;;;;;5060917;28;20415;-59
2022/01/27 15:11:35;;;;;;;10.40;7.00;;;;;;;;;;5052180;28;20415;-56
2022/01/27 15:18:48;;;;;;;10.37;7.37;;;;;;;;;;5050453;28;20534;-58